sensor_id;sensor_type;location;lat;lon;timestamp;temperature;humidity
39925;DHT22;25592;49.986;11.618;2023-04-21T00:02:33;11.10;99.90
39925;DHT22;25592;49.986;11.618;2023-04-21T00:05:20;11.20;99.90
39925;DHT22;25592;49.986;11.618;2023-04-21T00:08:07;11.10;99.90
39925;DHT22;25592;49.986;11.618;2023-04-21T00:10:52;11.20;99.90
39925;DHT22;25592;49.986;11.618;2023-04-21T00:13:37;11.20;99.90
39925;DHT22;25592;49.986;11.618;2023-04-21T00:16:23;11.20;99.90
39925;DHT22;25592;49.986;11.618;2023-04-21T00:19:08;11.20;99.90
39925;DHT22;25592;49.986;11.618;2023-04-21T00:21:54;11.20;99.90
39925;DHT22;25592;49.986;11.618;2023-04-21T00:24:44;11.20;99.90
39925;DHT22;25592;49.986;11.618;2023-04-21T00:27:29;11.20;99.90
39925;DHT22;25592;49.986;11.618;2023-04-21T00:30:15;11.20;99.90
39925;DHT22;25592;49.986;11.618;2023-04-21T00:33:00;11.20;99.90
39925;DHT22;25592;49.986;11.618;2023-04-21T00:35:46;11.30;99.90
39925;DHT22;25592;49.986;11.618;2023-04-21T00:38:31;11.20;99.90
39925;DHT22;25592;49.986;11.618;2023-04-21T00:41:16;11.30;99.90
39925;DHT22;25592;49.986;11.618;2023-04-21T00:46:48;11.30;99.90
39925;DHT22;25592;49.986;11.618;2023-04-21T00:49:33;11.20;99.90
39925;DHT22;25592;49.986;11.618;2023-04-21T00:52:19;11.20;99.90
39925;DHT22;25592;49.986;11.618;2023-04-21T00:55:05;11.20;99.90
39925;DHT22;25592;49.986;11.618;2023-04-21T00:57:51;11.20;99.90
39925;DHT22;25592;49.986;11.618;2023-04-21T01:00:37;11.20;99.90
39925;DHT22;25592;49.986;11.618;2023-04-21T01:03:23;11.20;99.90
39925;DHT22;25592;49.986;11.618;2023-04-21T01:06:09;11.20;99.90
39925;DHT22;25592;49.986;11.618;2023-04-21T01:08:55;11.30;99.90
39925;DHT22;25592;49.986;11.618;2023-04-21T01:11:40;11.30;99.90
39925;DHT22;25592;49.986;11.618;2023-04-21T01:14:25;11.30;99.90
39925;DHT22;25592;49.986;11.618;2023-04-21T01:17:11;11.30;99.90
39925;DHT22;25592;49.986;11.618;2023-04-21T01:19:57;11.30;99.90
39925;DHT22;25592;49.986;11.618;2023-04-21T01:22:45;11.30;99.90
39925;DHT22;25592;49.986;11.618;2023-04-21T01:25:31;11.30;99.90
39925;DHT22;25592;49.986;11.618;2023-04-21T01:28:23;11.30;99.90
39925;DHT22;25592;49.986;11.618;2023-04-21T01:31:09;11.40;99.90
39925;DHT22;25592;49.986;11.618;2023-04-21T01:33:54;11.40;99.90
39925;DHT22;25592;49.986;11.618;2023-04-21T01:36:40;11.50;99.90
39925;DHT22;25592;49.986;11.618;2023-04-21T01:39:25;11.40;99.90
39925;DHT22;25592;49.986;11.618;2023-04-21T01:42:11;11.40;99.90
39925;DHT22;25592;49.986;11.618;2023-04-21T01:44:58;11.40;99.90
39925;DHT22;25592;49.986;11.618;2023-04-21T01:47:43;11.40;99.90
39925;DHT22;25592;49.986;11.618;2023-04-21T01:50:29;11.40;99.90
39925;DHT22;25592;49.986;11.618;2023-04-21T01:53:14;11.40;99.90
39925;DHT22;25592;49.986;11.618;2023-04-21T01:55:59;11.30;99.90
39925;DHT22;25592;49.986;11.618;2023-04-21T01:58:45;11.40;99.90
39925;DHT22;25592;49.986;11.618;2023-04-21T02:01:30;11.20;99.90
39925;DHT22;25592;49.986;11.618;2023-04-21T02:04:16;11.30;99.90
39925;DHT22;25592;49.986;11.618;2023-04-21T02:07:01;11.30;99.90
39925;DHT22;25592;49.986;11.618;2023-04-21T02:09:47;11.30;99.90
39925;DHT22;25592;49.986;11.618;2023-04-21T02:12:32;11.20;99.90
39925;DHT22;25592;49.986;11.618;2023-04-21T02:15:17;11.20;99.90
39925;DHT22;25592;49.986;11.618;2023-04-21T02:18:03;11.20;99.90
39925;DHT22;25592;49.986;11.618;2023-04-21T02:20:48;11.20;99.90
39925;DHT22;25592;49.986;11.618;2023-04-21T02:23:34;11.20;99.90
39925;DHT22;25592;49.986;11.618;2023-04-21T02:26:19;11.20;99.90
39925;DHT22;25592;49.986;11.618;2023-04-21T02:29:05;11.20;99.90
39925;DHT22;25592;49.986;11.618;2023-04-21T02:31:50;11.20;99.90
39925;DHT22;25592;49.986;11.618;2023-04-21T02:34:49;11.20;99.90
39925;DHT22;25592;49.986;11.618;2023-04-21T02:37:35;11.10;99.90
39925;DHT22;25592;49.986;11.618;2023-04-21T02:40:20;11.10;99.90
39925;DHT22;25592;49.986;11.618;2023-04-21T02:43:05;11.10;99.90
39925;DHT22;25592;49.986;11.618;2023-04-21T02:45:51;11.10;99.90
39925;DHT22;25592;49.986;11.618;2023-04-21T02:48:37;11.10;99.90
39925;DHT22;25592;49.986;11.618;2023-04-21T02:51:22;11.10;99.90
39925;DHT22;25592;49.986;11.618;2023-04-21T02:54:07;11.00;99.90
39925;DHT22;25592;49.986;11.618;2023-04-21T02:56:52;11.10;99.90
39925;DHT22;25592;49.986;11.618;2023-04-21T02:59:38;11.10;99.90
39925;DHT22;25592;49.986;11.618;2023-04-21T03:02:23;11.10;99.90
39925;DHT22;25592;49.986;11.618;2023-04-21T03:05:09;11.20;99.90
39925;DHT22;25592;49.986;11.618;2023-04-21T03:07:54;11.20;99.90
39925;DHT22;25592;49.986;11.618;2023-04-21T03:10:39;11.20;99.90
39925;DHT22;25592;49.986;11.618;2023-04-21T03:13:25;11.20;99.90
39925;DHT22;25592;49.986;11.618;2023-04-21T03:16:10;11.20;99.90
39925;DHT22;25592;49.986;11.618;2023-04-21T03:18:57;11.20;99.90
39925;DHT22;25592;49.986;11.618;2023-04-21T03:21:42;11.20;99.90
39925;DHT22;25592;49.986;11.618;2023-04-21T03:24:28;11.20;99.90
39925;DHT22;25592;49.986;11.618;2023-04-21T03:27:13;11.20;99.90
39925;DHT22;25592;49.986;11.618;2023-04-21T03:29:59;11.20;99.90
39925;DHT22;25592;49.986;11.618;2023-04-21T03:32:44;11.30;99.90
39925;DHT22;25592;49.986;11.618;2023-04-21T03:35:29;11.20;99.90
39925;DHT22;25592;49.986;11.618;2023-04-21T03:38:15;11.30;99.90
39925;DHT22;25592;49.986;11.618;2023-04-21T03:41:02;11.30;99.90
39925;DHT22;25592;49.986;11.618;2023-04-21T03:43:49;11.30;99.90
39925;DHT22;25592;49.986;11.618;2023-04-21T03:46:36;11.20;99.90
39925;DHT22;25592;49.986;11.618;2023-04-21T03:49:21;11.20;99.90
39925;DHT22;25592;49.986;11.618;2023-04-21T03:52:06;11.20;99.90
39925;DHT22;25592;49.986;11.618;2023-04-21T03:54:52;11.20;99.90
39925;DHT22;25592;49.986;11.618;2023-04-21T03:57:39;11.20;99.90
39925;DHT22;25592;49.986;11.618;2023-04-21T04:00:24;11.20;99.90
39925;DHT22;25592;49.986;11.618;2023-04-21T04:03:10;11.10;99.90
39925;DHT22;25592;49.986;11.618;2023-04-21T04:05:55;11.10;99.90
39925;DHT22;25592;49.986;11.618;2023-04-21T04:08:41;11.00;99.90
39925;DHT22;25592;49.986;11.618;2023-04-21T04:11:26;11.00;99.90
39925;DHT22;25592;49.986;11.618;2023-04-21T04:14:12;11.00;99.90
39925;DHT22;25592;49.986;11.618;2023-04-21T04:16:57;11.00;99.90
39925;DHT22;25592;49.986;11.618;2023-04-21T04:19:43;11.00;99.90
39925;DHT22;25592;49.986;11.618;2023-04-21T04:22:29;11.00;99.90
39925;DHT22;25592;49.986;11.618;2023-04-21T04:25:14;10.90;99.90
39925;DHT22;25592;49.986;11.618;2023-04-21T04:28:01;10.90;99.90
39925;DHT22;25592;49.986;11.618;2023-04-21T04:30:46;10.90;99.90
39925;DHT22;25592;49.986;11.618;2023-04-21T04:33:32;10.90;99.90
39925;DHT22;25592;49.986;11.618;2023-04-21T04:36:18;10.90;99.90
39925;DHT22;25592;49.986;11.618;2023-04-21T04:39:03;10.80;99.90
39925;DHT22;25592;49.986;11.618;2023-04-21T04:41:51;10.70;99.90
39925;DHT22;25592;49.986;11.618;2023-04-21T04:44:37;10.80;99.90
39925;DHT22;25592;49.986;11.618;2023-04-21T04:47:22;10.70;99.90
39925;DHT22;25592;49.986;11.618;2023-04-21T04:50:08;10.70;99.90
39925;DHT22;25592;49.986;11.618;2023-04-21T04:52:53;10.70;99.90
39925;DHT22;25592;49.986;11.618;2023-04-21T04:55:38;10.70;99.90
39925;DHT22;25592;49.986;11.618;2023-04-21T04:58:24;10.80;99.90
39925;DHT22;25592;49.986;11.618;2023-04-21T05:01:14;10.80;99.90
39925;DHT22;25592;49.986;11.618;2023-04-21T05:04:00;10.90;99.90
39925;DHT22;25592;49.986;11.618;2023-04-21T05:06:46;10.90;99.90
39925;DHT22;25592;49.986;11.618;2023-04-21T05:09:31;10.90;99.90
39925;DHT22;25592;49.986;11.618;2023-04-21T05:12:16;11.00;99.90
39925;DHT22;25592;49.986;11.618;2023-04-21T05:15:02;10.90;99.90
39925;DHT22;25592;49.986;11.618;2023-04-21T05:17:48;10.90;99.90
39925;DHT22;25592;49.986;11.618;2023-04-21T05:20:33;10.90;99.90
39925;DHT22;25592;49.986;11.618;2023-04-21T05:23:19;11.00;99.90
39925;DHT22;25592;49.986;11.618;2023-04-21T05:26:05;11.00;99.90
39925;DHT22;25592;49.986;11.618;2023-04-21T05:28:50;11.00;99.90
39925;DHT22;25592;49.986;11.618;2023-04-21T05:31:36;11.10;99.90
39925;DHT22;25592;49.986;11.618;2023-04-21T05:34:22;11.10;99.90
39925;DHT22;25592;49.986;11.618;2023-04-21T05:37:10;11.10;99.90
39925;DHT22;25592;49.986;11.618;2023-04-21T05:39:56;11.20;99.90
39925;DHT22;25592;49.986;11.618;2023-04-21T05:42:42;11.30;99.90
39925;DHT22;25592;49.986;11.618;2023-04-21T05:45:27;11.30;99.90
39925;DHT22;25592;49.986;11.618;2023-04-21T05:48:12;11.40;99.90
39925;DHT22;25592;49.986;11.618;2023-04-21T05:51:10;11.40;99.90
39925;DHT22;25592;49.986;11.618;2023-04-21T05:53:55;11.50;99.90
39925;DHT22;25592;49.986;11.618;2023-04-21T05:56:40;11.50;99.90
39925;DHT22;25592;49.986;11.618;2023-04-21T05:59:26;11.50;99.90
39925;DHT22;25592;49.986;11.618;2023-04-21T06:02:11;11.50;99.90
39925;DHT22;25592;49.986;11.618;2023-04-21T06:04:57;11.60;99.90
39925;DHT22;25592;49.986;11.618;2023-04-21T06:07:43;11.60;99.90
39925;DHT22;25592;49.986;11.618;2023-04-21T06:10:28;11.60;99.90
39925;DHT22;25592;49.986;11.618;2023-04-21T06:13:15;11.70;99.90
39925;DHT22;25592;49.986;11.618;2023-04-21T06:16:00;11.70;99.90
39925;DHT22;25592;49.986;11.618;2023-04-21T06:18:45;11.80;99.90
39925;DHT22;25592;49.986;11.618;2023-04-21T06:21:31;11.80;99.90
39925;DHT22;25592;49.986;11.618;2023-04-21T06:24:17;11.70;99.90
39925;DHT22;25592;49.986;11.618;2023-04-21T06:27:12;11.70;99.90
39925;DHT22;25592;49.986;11.618;2023-04-21T06:29:57;11.70;99.90
39925;DHT22;25592;49.986;11.618;2023-04-21T06:32:43;11.70;99.90
39925;DHT22;25592;49.986;11.618;2023-04-21T06:35:33;11.80;99.90
39925;DHT22;25592;49.986;11.618;2023-04-21T06:38:18;11.90;99.90
39925;DHT22;25592;49.986;11.618;2023-04-21T06:41:04;12.00;99.90
39925;DHT22;25592;49.986;11.618;2023-04-21T06:43:50;12.00;99.90
39925;DHT22;25592;49.986;11.618;2023-04-21T06:46:36;12.10;99.90
39925;DHT22;25592;49.986;11.618;2023-04-21T06:49:21;12.10;99.90
39925;DHT22;25592;49.986;11.618;2023-04-21T06:52:06;12.20;99.90
39925;DHT22;25592;49.986;11.618;2023-04-21T06:54:51;12.30;99.90
39925;DHT22;25592;49.986;11.618;2023-04-21T06:57:37;12.30;99.90
39925;DHT22;25592;49.986;11.618;2023-04-21T07:00:22;12.30;99.90
39925;DHT22;25592;49.986;11.618;2023-04-21T07:03:08;12.40;99.90
39925;DHT22;25592;49.986;11.618;2023-04-21T07:05:53;12.40;99.90
39925;DHT22;25592;49.986;11.618;2023-04-21T07:08:38;12.50;99.90
39925;DHT22;25592;49.986;11.618;2023-04-21T07:11:25;12.60;99.90
39925;DHT22;25592;49.986;11.618;2023-04-21T07:14:12;12.50;99.90
39925;DHT22;25592;49.986;11.618;2023-04-21T07:16:58;12.60;99.90
39925;DHT22;25592;49.986;11.618;2023-04-21T07:19:43;12.70;99.90
39925;DHT22;25592;49.986;11.618;2023-04-21T07:22:29;12.70;99.80
39925;DHT22;25592;49.986;11.618;2023-04-21T07:25:14;12.90;99.70
39925;DHT22;25592;49.986;11.618;2023-04-21T07:27:59;12.80;99.00
39925;DHT22;25592;49.986;11.618;2023-04-21T07:30:46;12.90;99.20
39925;DHT22;25592;49.986;11.618;2023-04-21T07:33:32;12.90;99.10
39925;DHT22;25592;49.986;11.618;2023-04-21T07:36:17;13.00;99.70
39925;DHT22;25592;49.986;11.618;2023-04-21T07:39:03;13.20;99.40
39925;DHT22;25592;49.986;11.618;2023-04-21T07:41:48;13.30;99.30
39925;DHT22;25592;49.986;11.618;2023-04-21T07:44:34;13.50;99.30
39925;DHT22;25592;49.986;11.618;2023-04-21T07:47:19;13.60;98.70
39925;DHT22;25592;49.986;11.618;2023-04-21T07:50:05;13.70;98.50
39925;DHT22;25592;49.986;11.618;2023-04-21T07:52:51;13.60;98.10
39925;DHT22;25592;49.986;11.618;2023-04-21T07:55:36;13.80;98.00
39925;DHT22;25592;49.986;11.618;2023-04-21T07:58:22;13.90;97.90
39925;DHT22;25592;49.986;11.618;2023-04-21T08:01:07;14.00;97.70
39925;DHT22;25592;49.986;11.618;2023-04-21T08:03:53;14.10;98.00
39925;DHT22;25592;49.986;11.618;2023-04-21T08:06:38;14.20;97.40
39925;DHT22;25592;49.986;11.618;2023-04-21T08:09:23;14.40;97.50
39925;DHT22;25592;49.986;11.618;2023-04-21T08:12:09;14.50;97.10
39925;DHT22;25592;49.986;11.618;2023-04-21T08:14:54;14.70;97.30
39925;DHT22;25592;49.986;11.618;2023-04-21T08:17:40;14.80;95.90
39925;DHT22;25592;49.986;11.618;2023-04-21T08:20:25;15.00;96.60
39925;DHT22;25592;49.986;11.618;2023-04-21T08:23:11;15.10;96.40
39925;DHT22;25592;49.986;11.618;2023-04-21T08:25:56;15.20;95.80
39925;DHT22;25592;49.986;11.618;2023-04-21T08:28:42;15.20;96.50
39925;DHT22;25592;49.986;11.618;2023-04-21T08:31:28;15.30;96.00
39925;DHT22;25592;49.986;11.618;2023-04-21T08:34:14;15.50;95.30
39925;DHT22;25592;49.986;11.618;2023-04-21T08:36:59;15.50;94.60
39925;DHT22;25592;49.986;11.618;2023-04-21T08:39:46;15.50;94.20
39925;DHT22;25592;49.986;11.618;2023-04-21T08:42:33;15.40;94.20
39925;DHT22;25592;49.986;11.618;2023-04-21T08:45:19;15.50;94.50
39925;DHT22;25592;49.986;11.618;2023-04-21T08:48:05;15.60;94.10
39925;DHT22;25592;49.986;11.618;2023-04-21T08:50:52;15.80;94.50
39925;DHT22;25592;49.986;11.618;2023-04-21T08:53:39;15.90;94.50
39925;DHT22;25592;49.986;11.618;2023-04-21T08:56:26;15.90;94.10
39925;DHT22;25592;49.986;11.618;2023-04-21T08:59:12;16.00;94.00
39925;DHT22;25592;49.986;11.618;2023-04-21T09:02:12;16.00;93.80
39925;DHT22;25592;49.986;11.618;2023-04-21T09:04:59;16.10;93.20
39925;DHT22;25592;49.986;11.618;2023-04-21T09:07:45;16.00;93.00
39925;DHT22;25592;49.986;11.618;2023-04-21T09:10:30;15.90;92.90
39925;DHT22;25592;49.986;11.618;2023-04-21T09:13:16;16.00;92.80
39925;DHT22;25592;49.986;11.618;2023-04-21T09:16:04;16.10;92.90
39925;DHT22;25592;49.986;11.618;2023-04-21T09:18:52;16.20;92.60
39925;DHT22;25592;49.986;11.618;2023-04-21T09:21:43;16.40;92.60
39925;DHT22;25592;49.986;11.618;2023-04-21T09:24:29;16.60;92.40
39925;DHT22;25592;49.986;11.618;2023-04-21T09:27:15;16.80;91.30
39925;DHT22;25592;49.986;11.618;2023-04-21T09:30:03;16.80;91.70
39925;DHT22;25592;49.986;11.618;2023-04-21T09:32:48;16.90;90.80
39925;DHT22;25592;49.986;11.618;2023-04-21T09:35:36;17.20;91.00
39925;DHT22;25592;49.986;11.618;2023-04-21T09:38:21;17.30;89.90
39925;DHT22;25592;49.986;11.618;2023-04-21T09:41:07;17.30;90.40
39925;DHT22;25592;49.986;11.618;2023-04-21T09:43:52;17.50;90.00
39925;DHT22;25592;49.986;11.618;2023-04-21T09:46:38;17.70;89.90
39925;DHT22;25592;49.986;11.618;2023-04-21T09:49:29;17.70;88.90
39925;DHT22;25592;49.986;11.618;2023-04-21T09:52:16;17.80;88.90
39925;DHT22;25592;49.986;11.618;2023-04-21T09:55:10;17.90;88.10
39925;DHT22;25592;49.986;11.618;2023-04-21T09:57:58;17.90;88.40
39925;DHT22;25592;49.986;11.618;2023-04-21T10:00:44;18.10;88.60
39925;DHT22;25592;49.986;11.618;2023-04-21T10:03:30;18.30;88.00
39925;DHT22;25592;49.986;11.618;2023-04-21T10:06:16;18.50;86.80
39925;DHT22;25592;49.986;11.618;2023-04-21T10:09:03;18.40;87.10
39925;DHT22;25592;49.986;11.618;2023-04-21T10:11:50;18.50;86.80
39925;DHT22;25592;49.986;11.618;2023-04-21T10:14:36;18.70;86.90
39925;DHT22;25592;49.986;11.618;2023-04-21T10:17:22;18.90;86.90
39925;DHT22;25592;49.986;11.618;2023-04-21T10:20:14;18.90;85.90
39925;DHT22;25592;49.986;11.618;2023-04-21T10:22:59;19.00;84.50
39925;DHT22;25592;49.986;11.618;2023-04-21T10:25:48;18.80;84.00
39925;DHT22;25592;49.986;11.618;2023-04-21T10:28:45;18.90;83.90
39925;DHT22;25592;49.986;11.618;2023-04-21T10:31:50;18.90;83.60
39925;DHT22;25592;49.986;11.618;2023-04-21T10:34:37;19.00;85.20
39925;DHT22;25592;49.986;11.618;2023-04-21T10:37:22;19.10;83.80
39925;DHT22;25592;49.986;11.618;2023-04-21T10:40:34;19.20;83.50
39925;DHT22;25592;49.986;11.618;2023-04-21T10:43:44;19.40;82.80
39925;DHT22;25592;49.986;11.618;2023-04-21T10:46:38;19.60;82.50
39925;DHT22;25592;49.986;11.618;2023-04-21T10:49:28;19.60;82.10
39925;DHT22;25592;49.986;11.618;2023-04-21T10:52:14;19.80;83.10
39925;DHT22;25592;49.986;11.618;2023-04-21T10:57:47;19.90;81.90
39925;DHT22;25592;49.986;11.618;2023-04-21T11:00:32;19.90;82.80
39925;DHT22;25592;49.986;11.618;2023-04-21T11:03:18;19.90;81.50
39925;DHT22;25592;49.986;11.618;2023-04-21T11:06:13;19.90;80.60
39925;DHT22;25592;49.986;11.618;2023-04-21T11:08:59;20.10;79.40
39925;DHT22;25592;49.986;11.618;2023-04-21T11:11:44;19.90;80.70
39925;DHT22;25592;49.986;11.618;2023-04-21T11:14:30;20.10;79.60
39925;DHT22;25592;49.986;11.618;2023-04-21T11:17:19;20.10;79.80
39925;DHT22;25592;49.986;11.618;2023-04-21T11:20:07;20.20;80.20
39925;DHT22;25592;49.986;11.618;2023-04-21T11:22:55;20.30;80.20
39925;DHT22;25592;49.986;11.618;2023-04-21T11:25:44;20.30;79.50
39925;DHT22;25592;49.986;11.618;2023-04-21T11:28:31;20.30;79.70
39925;DHT22;25592;49.986;11.618;2023-04-21T11:31:17;20.60;80.80
39925;DHT22;25592;49.986;11.618;2023-04-21T11:34:03;21.10;79.70
39925;DHT22;25592;49.986;11.618;2023-04-21T11:36:49;21.50;79.70
39925;DHT22;25592;49.986;11.618;2023-04-21T11:39:35;21.20;79.00
39925;DHT22;25592;49.986;11.618;2023-04-21T11:42:25;21.00;77.50
39925;DHT22;25592;49.986;11.618;2023-04-21T11:45:18;21.40;78.90
39925;DHT22;25592;49.986;11.618;2023-04-21T11:48:14;21.40;77.30
39925;DHT22;25592;49.986;11.618;2023-04-21T11:51:00;21.50;77.20
39925;DHT22;25592;49.986;11.618;2023-04-21T11:53:46;21.50;77.60
39925;DHT22;25592;49.986;11.618;2023-04-21T11:56:36;21.40;77.40
39925;DHT22;25592;49.986;11.618;2023-04-21T11:59:22;21.30;78.10
39925;DHT22;25592;49.986;11.618;2023-04-21T12:02:12;21.10;77.10
39925;DHT22;25592;49.986;11.618;2023-04-21T12:05:10;21.20;77.30
39925;DHT22;25592;49.986;11.618;2023-04-21T12:07:56;21.20;76.70
39925;DHT22;25592;49.986;11.618;2023-04-21T12:10:45;21.10;76.60
39925;DHT22;25592;49.986;11.618;2023-04-21T12:13:33;21.60;76.60
39925;DHT22;25592;49.986;11.618;2023-04-21T12:16:20;21.40;75.50
39925;DHT22;25592;49.986;11.618;2023-04-21T12:19:05;21.50;75.40
39925;DHT22;25592;49.986;11.618;2023-04-21T12:21:54;21.60;75.80
39925;DHT22;25592;49.986;11.618;2023-04-21T12:24:41;21.60;74.10
39925;DHT22;25592;49.986;11.618;2023-04-21T12:27:27;21.20;74.00
39925;DHT22;25592;49.986;11.618;2023-04-21T12:30:13;21.20;74.50
39925;DHT22;25592;49.986;11.618;2023-04-21T12:32:58;21.20;74.50
39925;DHT22;25592;49.986;11.618;2023-04-21T12:35:43;21.30;74.20
39925;DHT22;25592;49.986;11.618;2023-04-21T12:38:29;21.70;73.90
39925;DHT22;25592;49.986;11.618;2023-04-21T12:41:14;21.90;75.00
39925;DHT22;25592;49.986;11.618;2023-04-21T12:44:00;21.80;73.80
39925;DHT22;25592;49.986;11.618;2023-04-21T12:46:45;21.80;73.50
39925;DHT22;25592;49.986;11.618;2023-04-21T12:49:34;21.60;73.00
39925;DHT22;25592;49.986;11.618;2023-04-21T12:52:19;21.80;74.20
39925;DHT22;25592;49.986;11.618;2023-04-21T12:55:05;22.00;73.40
39925;DHT22;25592;49.986;11.618;2023-04-21T12:57:51;22.00;74.10
39925;DHT22;25592;49.986;11.618;2023-04-21T13:00:36;22.00;73.40
39925;DHT22;25592;49.986;11.618;2023-04-21T13:03:22;21.90;73.70
39925;DHT22;25592;49.986;11.618;2023-04-21T13:06:07;21.60;73.00
39925;DHT22;25592;49.986;11.618;2023-04-21T13:08:53;21.60;73.10
39925;DHT22;25592;49.986;11.618;2023-04-21T13:11:38;21.60;73.20
39925;DHT22;25592;49.986;11.618;2023-04-21T13:14:24;21.90;74.00
39925;DHT22;25592;49.986;11.618;2023-04-21T13:17:09;21.90;72.10
39925;DHT22;25592;49.986;11.618;2023-04-21T13:19:55;22.10;73.20
39925;DHT22;25592;49.986;11.618;2023-04-21T13:22:40;22.30;72.50
39925;DHT22;25592;49.986;11.618;2023-04-21T13:25:26;22.30;71.80
39925;DHT22;25592;49.986;11.618;2023-04-21T13:28:11;22.00;70.50
39925;DHT22;25592;49.986;11.618;2023-04-21T13:30:58;21.80;72.20
39925;DHT22;25592;49.986;11.618;2023-04-21T13:33:44;21.80;72.80
39925;DHT22;25592;49.986;11.618;2023-04-21T13:36:29;22.00;71.10
39925;DHT22;25592;49.986;11.618;2023-04-21T13:39:15;22.10;71.40
39925;DHT22;25592;49.986;11.618;2023-04-21T13:42:01;22.00;71.20
39925;DHT22;25592;49.986;11.618;2023-04-21T13:44:46;22.10;71.20
39925;DHT22;25592;49.986;11.618;2023-04-21T13:47:32;22.40;72.20
39925;DHT22;25592;49.986;11.618;2023-04-21T13:50:17;22.50;70.20
39925;DHT22;25592;49.986;11.618;2023-04-21T13:53:03;22.40;69.70
39925;DHT22;25592;49.986;11.618;2023-04-21T13:55:48;22.30;70.50
39925;DHT22;25592;49.986;11.618;2023-04-21T13:58:34;22.40;71.70
39925;DHT22;25592;49.986;11.618;2023-04-21T14:01:19;22.40;70.40
39925;DHT22;25592;49.986;11.618;2023-04-21T14:04:05;22.40;70.90
39925;DHT22;25592;49.986;11.618;2023-04-21T14:06:51;22.20;70.70
39925;DHT22;25592;49.986;11.618;2023-04-21T14:09:37;22.00;69.00
39925;DHT22;25592;49.986;11.618;2023-04-21T14:12:22;21.60;69.70
39925;DHT22;25592;49.986;11.618;2023-04-21T14:15:11;21.70;70.60
39925;DHT22;25592;49.986;11.618;2023-04-21T14:17:57;21.90;71.00
39925;DHT22;25592;49.986;11.618;2023-04-21T14:20:44;21.90;71.50
39925;DHT22;25592;49.986;11.618;2023-04-21T14:23:29;21.90;71.70
39925;DHT22;25592;49.986;11.618;2023-04-21T14:26:15;21.70;71.20
39925;DHT22;25592;49.986;11.618;2023-04-21T14:29:01;21.90;71.50
39925;DHT22;25592;49.986;11.618;2023-04-21T14:31:46;22.30;71.00
39925;DHT22;25592;49.986;11.618;2023-04-21T14:34:31;22.30;71.60
39925;DHT22;25592;49.986;11.618;2023-04-21T14:37:17;22.00;71.30
39925;DHT22;25592;49.986;11.618;2023-04-21T14:40:02;21.90;72.40
39925;DHT22;25592;49.986;11.618;2023-04-21T14:42:48;21.90;71.90
39925;DHT22;25592;49.986;11.618;2023-04-21T14:45:33;22.00;71.40
39925;DHT22;25592;49.986;11.618;2023-04-21T14:48:19;22.20;71.60
39925;DHT22;25592;49.986;11.618;2023-04-21T14:51:05;22.40;71.40
39925;DHT22;25592;49.986;11.618;2023-04-21T14:53:53;22.50;70.70
39925;DHT22;25592;49.986;11.618;2023-04-21T14:56:38;22.60;71.30
39925;DHT22;25592;49.986;11.618;2023-04-21T14:59:23;22.20;68.60
39925;DHT22;25592;49.986;11.618;2023-04-21T15:02:10;22.20;69.30
39925;DHT22;25592;49.986;11.618;2023-04-21T15:04:56;22.10;69.00
39925;DHT22;25592;49.986;11.618;2023-04-21T15:07:41;22.10;70.50
39925;DHT22;25592;49.986;11.618;2023-04-21T15:10:27;22.10;69.20
39925;DHT22;25592;49.986;11.618;2023-04-21T15:13:14;22.10;69.80
39925;DHT22;25592;49.986;11.618;2023-04-21T15:16:00;22.20;69.80
39925;DHT22;25592;49.986;11.618;2023-04-21T15:18:45;22.40;70.30
39925;DHT22;25592;49.986;11.618;2023-04-21T15:21:31;22.70;69.80
39925;DHT22;25592;49.986;11.618;2023-04-21T15:24:16;22.80;68.60
39925;DHT22;25592;49.986;11.618;2023-04-21T15:27:01;22.60;68.80
39925;DHT22;25592;49.986;11.618;2023-04-21T15:29:46;22.50;68.50
39925;DHT22;25592;49.986;11.618;2023-04-21T15:32:32;22.30;68.80
39925;DHT22;25592;49.986;11.618;2023-04-21T15:35:17;22.40;68.80
39925;DHT22;25592;49.986;11.618;2023-04-21T15:38:03;22.50;69.80
39925;DHT22;25592;49.986;11.618;2023-04-21T15:40:51;22.50;68.90
39925;DHT22;25592;49.986;11.618;2023-04-21T15:43:46;22.60;69.20
39925;DHT22;25592;49.986;11.618;2023-04-21T15:46:31;22.50;69.30
39925;DHT22;25592;49.986;11.618;2023-04-21T15:49:18;22.40;68.40
39925;DHT22;25592;49.986;11.618;2023-04-21T15:52:03;22.60;69.70
39925;DHT22;25592;49.986;11.618;2023-04-21T15:54:50;22.30;69.30
39925;DHT22;25592;49.986;11.618;2023-04-21T15:57:36;22.20;69.40
39925;DHT22;25592;49.986;11.618;2023-04-21T16:00:21;22.30;69.50
39925;DHT22;25592;49.986;11.618;2023-04-21T16:03:07;22.40;68.80
39925;DHT22;25592;49.986;11.618;2023-04-21T16:05:53;22.30;69.50
39925;DHT22;25592;49.986;11.618;2023-04-21T16:08:39;22.20;69.60
39925;DHT22;25592;49.986;11.618;2023-04-21T16:11:24;22.00;68.90
39925;DHT22;25592;49.986;11.618;2023-04-21T16:14:11;21.90;68.90
39925;DHT22;25592;49.986;11.618;2023-04-21T16:17:00;22.00;68.80
39925;DHT22;25592;49.986;11.618;2023-04-21T16:19:46;22.30;69.80
39925;DHT22;25592;49.986;11.618;2023-04-21T16:22:32;22.40;70.60
39925;DHT22;25592;49.986;11.618;2023-04-21T16:25:17;22.40;69.60
39925;DHT22;25592;49.986;11.618;2023-04-21T16:28:04;22.20;67.90
39925;DHT22;25592;49.986;11.618;2023-04-21T16:30:51;22.10;68.50
39925;DHT22;25592;49.986;11.618;2023-04-21T16:33:36;22.10;69.00
39925;DHT22;25592;49.986;11.618;2023-04-21T16:36:21;22.00;68.40
39925;DHT22;25592;49.986;11.618;2023-04-21T16:39:07;21.90;69.00
39925;DHT22;25592;49.986;11.618;2023-04-21T16:41:52;21.90;68.70
39925;DHT22;25592;49.986;11.618;2023-04-21T16:44:38;21.80;68.80
39925;DHT22;25592;49.986;11.618;2023-04-21T16:47:25;21.90;69.80
39925;DHT22;25592;49.986;11.618;2023-04-21T16:50:11;21.80;68.80
39925;DHT22;25592;49.986;11.618;2023-04-21T16:52:56;21.70;68.90
39925;DHT22;25592;49.986;11.618;2023-04-21T16:55:41;21.50;69.00
39925;DHT22;25592;49.986;11.618;2023-04-21T16:58:27;21.60;69.70
39925;DHT22;25592;49.986;11.618;2023-04-21T17:01:12;21.50;69.30
39925;DHT22;25592;49.986;11.618;2023-04-21T17:03:58;21.40;69.40
39925;DHT22;25592;49.986;11.618;2023-04-21T17:06:43;21.50;69.90
39925;DHT22;25592;49.986;11.618;2023-04-21T17:09:28;21.30;68.50
39925;DHT22;25592;49.986;11.618;2023-04-21T17:12:14;21.10;68.70
39925;DHT22;25592;49.986;11.618;2023-04-21T17:14:59;20.90;68.90
39925;DHT22;25592;49.986;11.618;2023-04-21T17:17:46;20.80;69.40
39925;DHT22;25592;49.986;11.618;2023-04-21T17:20:32;20.80;69.80